createdAt,value
2023-05-19T00:01:37.771Z,18.36
2023-05-19T00:04:17.077Z,18.35
2023-05-19T00:07:03.469Z,18.34
2023-05-19T00:09:37.511Z,18.32
2023-05-19T00:12:13.859Z,18.31
2023-05-19T00:14:52.334Z,18.31
2023-05-19T00:17:25.504Z,18.30
2023-05-19T00:20:07.455Z,18.29
2023-05-19T00:22:45.171Z,18.29
2023-05-19T00:25:23.142Z,18.28
2023-05-19T00:28:07.306Z,18.28
2023-05-19T00:30:54.947Z,18.26
2023-05-19T00:33:39.295Z,18.25
2023-05-19T00:36:12.178Z,18.24
2023-05-19T00:38:51.936Z,18.23
2023-05-19T00:41:25.176Z,18.23
2023-05-19T00:44:03.044Z,18.22
2023-05-19T00:46:41.802Z,18.21
2023-05-19T00:49:14.509Z,18.21
2023-05-19T00:51:47.688Z,18.20
2023-05-19T00:54:21.430Z,18.20
2023-05-19T00:57:09.261Z,18.19
2023-05-19T01:03:11.450Z,18.17
2023-05-19T01:05:45.343Z,18.17
2023-05-19T01:11:08.522Z,18.16
2023-05-19T01:13:47.194Z,18.15
2023-05-19T01:19:46.742Z,18.12
2023-05-19T01:22:22.920Z,18.12
2023-05-19T01:25:17.984Z,18.10
2023-05-19T01:28:50.389Z,18.09
2023-05-19T01:31:55.390Z,18.09
2023-05-19T01:34:29.520Z,18.08
2023-05-19T01:37:03.723Z,18.07
2023-05-19T01:39:37.320Z,18.07
2023-05-19T01:42:11.011Z,18.05
2023-05-19T01:44:53.631Z,18.04
2023-05-19T01:47:26.825Z,18.04
2023-05-19T01:49:59.403Z,18.03
2023-05-19T01:52:32.368Z,18.02
2023-05-19T01:55:14.176Z,18.01
2023-05-19T01:58:14.874Z,18.01
2023-05-19T02:04:45.050Z,17.99
2023-05-19T02:07:31.847Z,17.99
2023-05-19T02:10:27.366Z,17.98
2023-05-19T02:16:27.788Z,17.97
2023-05-19T02:19:00.605Z,17.95
2023-05-19T02:21:44.917Z,17.94
2023-05-19T02:24:29.537Z,17.94
2023-05-19T02:27:08.705Z,17.94
2023-05-19T02:29:52.970Z,17.94
2023-05-19T02:32:25.707Z,17.91
2023-05-19T02:34:58.639Z,17.91
2023-05-19T02:37:34.076Z,17.90
2023-05-19T02:40:07.364Z,17.91
2023-05-19T02:42:42.573Z,17.89
2023-05-19T02:45:15.202Z,17.89
2023-05-19T02:47:47.852Z,17.87
2023-05-19T02:50:20.510Z,17.88
2023-05-19T02:52:53.989Z,17.87
2023-05-19T02:55:26.802Z,17.87
2023-05-19T02:57:59.415Z,17.86
2023-05-19T03:00:32.284Z,17.86
2023-05-19T03:03:40.812Z,17.86
2023-05-19T03:06:25.878Z,17.84
2023-05-19T03:08:58.787Z,17.84
2023-05-19T03:11:31.816Z,17.83
2023-05-19T03:14:09.720Z,17.83
2023-05-19T03:16:54.156Z,17.82
2023-05-19T03:19:44.474Z,17.81
2023-05-19T03:22:18.816Z,17.80
2023-05-19T03:24:58.594Z,17.79
2023-05-19T03:27:31.500Z,17.79
2023-05-19T03:30:06.524Z,17.78
2023-05-19T03:32:40.165Z,17.77
2023-05-19T03:35:38.887Z,17.76
2023-05-19T03:38:14.294Z,17.75
2023-05-19T03:40:56.129Z,17.74
2023-05-19T03:43:44.031Z,17.74
2023-05-19T03:46:16.689Z,17.72
2023-05-19T03:48:49.383Z,17.72
2023-05-19T03:51:24.844Z,17.73
2023-05-19T03:54:47.835Z,17.73
2023-05-19T03:57:47.217Z,17.69
2023-05-19T04:00:20.308Z,17.70
2023-05-19T04:02:53.056Z,17.67
2023-05-19T04:05:26.006Z,17.67
2023-05-19T04:08:00.508Z,17.67
2023-05-19T04:10:33.460Z,17.67
2023-05-19T04:13:06.315Z,17.66
2023-05-19T04:15:42.512Z,17.66
2023-05-19T04:18:23.757Z,17.64
2023-05-19T04:21:02.548Z,17.64
2023-05-19T04:23:35.539Z,17.64
2023-05-19T04:26:16.756Z,17.63
2023-05-19T04:28:56.640Z,17.63
2023-05-19T04:31:49.086Z,17.62
2023-05-19T04:34:21.695Z,17.62
2023-05-19T04:36:57.615Z,17.62
2023-05-19T04:39:30.168Z,17.62
2023-05-19T04:42:19.912Z,17.61
2023-05-19T04:44:52.478Z,17.61
2023-05-19T04:50:35.525Z,17.59
2023-05-19T04:53:26.847Z,17.60
2023-05-19T04:56:01.222Z,17.59
2023-05-19T04:58:39.694Z,17.58
2023-05-19T05:04:08.194Z,17.58
2023-05-19T05:06:48.133Z,17.59
2023-05-19T05:09:21.044Z,17.59
2023-05-19T05:11:54.183Z,17.58
2023-05-19T05:14:27.224Z,17.58
2023-05-19T05:17:03.160Z,17.56
2023-05-19T05:19:42.194Z,17.57
2023-05-19T05:22:21.363Z,17.57
2023-05-19T05:24:54.273Z,17.56
2023-05-19T05:27:27.099Z,17.57
2023-05-19T05:30:23.600Z,17.57
2023-05-19T05:32:57.006Z,17.56
2023-05-19T05:35:56.370Z,17.56
2023-05-19T05:38:28.900Z,17.57
2023-05-19T05:41:07.598Z,17.56
2023-05-19T05:43:52.454Z,17.57
2023-05-19T05:46:28.041Z,17.57
2023-05-19T05:49:15.377Z,17.56
2023-05-19T05:52:01.901Z,17.55
2023-05-19T05:54:38.802Z,17.57
2023-05-19T05:57:11.650Z,17.56
2023-05-19T05:59:45.542Z,17.58
2023-05-19T06:02:30.961Z,17.57
2023-05-19T06:05:03.708Z,17.56
2023-05-19T06:07:37.827Z,17.58
2023-05-19T06:10:19.704Z,17.58
2023-05-19T06:13:12.639Z,17.58
2023-05-19T06:15:45.264Z,17.59
2023-05-19T06:18:18.369Z,17.60
2023-05-19T06:20:50.965Z,17.59
2023-05-19T06:23:24.002Z,17.59
2023-05-19T06:25:59.040Z,17.59
2023-05-19T06:28:32.820Z,17.59
2023-05-19T06:31:06.111Z,17.59
2023-05-19T06:33:44.435Z,17.59
2023-05-19T06:36:29.178Z,17.60
2023-05-19T06:39:16.713Z,17.59
2023-05-19T06:41:49.525Z,17.60
2023-05-19T06:44:37.432Z,17.61
2023-05-19T06:47:17.351Z,17.62
2023-05-19T06:50:08.132Z,17.61
2023-05-19T06:52:44.363Z,17.62
2023-05-19T06:55:20.331Z,17.62
2023-05-19T06:57:52.973Z,17.63
2023-05-19T07:00:26.018Z,17.63
2023-05-19T07:03:01.283Z,17.64
2023-05-19T07:05:33.935Z,17.64
2023-05-19T07:08:08.438Z,17.64
2023-05-19T07:10:41.125Z,17.64
2023-05-19T07:13:13.785Z,17.66
2023-05-19T07:15:58.480Z,17.65
2023-05-19T07:18:37.489Z,17.67
2023-05-19T07:21:10.172Z,17.67
2023-05-19T07:23:45.617Z,17.67
2023-05-19T07:26:18.163Z,17.68
2023-05-19T07:28:51.917Z,17.69
2023-05-19T07:31:36.799Z,17.70
2023-05-19T07:34:12.172Z,17.71
2023-05-19T07:37:07.968Z,17.73
2023-05-19T07:39:49.569Z,17.73
2023-05-19T07:42:22.609Z,17.76
2023-05-19T07:47:56.938Z,17.79
2023-05-19T07:50:33.012Z,17.80
2023-05-19T07:53:24.314Z,17.81
2023-05-19T07:55:58.680Z,17.82
2023-05-19T07:58:43.476Z,17.83
2023-05-19T08:01:16.523Z,17.85
2023-05-19T08:03:55.141Z,17.86
2023-05-19T08:06:36.959Z,17.86
2023-05-19T08:09:21.660Z,17.88
2023-05-19T08:12:00.588Z,17.90
2023-05-19T08:14:44.790Z,17.92
2023-05-19T08:17:22.782Z,17.94
2023-05-19T08:19:55.369Z,17.96
2023-05-19T08:22:30.882Z,17.98
2023-05-19T08:25:06.354Z,18.00
2023-05-19T08:27:39.882Z,18.01
2023-05-19T08:30:21.394Z,18.03
2023-05-19T08:32:56.966Z,18.05
2023-05-19T08:35:29.802Z,18.06
2023-05-19T08:38:13.036Z,18.07
2023-05-19T08:43:59.541Z,18.09
2023-05-19T08:46:32.345Z,18.11
2023-05-19T08:49:28.503Z,18.13
2023-05-19T08:52:17.266Z,18.15
2023-05-19T08:55:13.825Z,18.15
2023-05-19T08:57:54.564Z,18.16
2023-05-19T09:00:39.599Z,18.17
2023-05-19T09:03:26.582Z,18.19
2023-05-19T09:05:59.497Z,18.20
2023-05-19T09:08:32.380Z,18.21
2023-05-19T09:11:04.997Z,18.24
2023-05-19T09:13:37.660Z,18.25
2023-05-19T09:16:11.817Z,18.27
2023-05-19T09:21:37.698Z,18.31
2023-05-19T09:24:13.521Z,18.33
2023-05-19T09:26:46.225Z,18.34
2023-05-19T09:29:21.827Z,18.18
2023-05-19T09:32:49.494Z,18.37
2023-05-19T09:35:24.494Z,18.39
2023-05-19T09:38:17.245Z,18.41
2023-05-19T09:40:57.676Z,18.42
2023-05-19T09:43:31.699Z,18.42
2023-05-19T09:46:14.665Z,18.44
2023-05-19T09:48:50.971Z,18.47
2023-05-19T09:51:24.084Z,18.48
2023-05-19T09:54:03.597Z,18.51
2023-05-19T09:56:36.240Z,18.52
2023-05-19T09:59:16.365Z,18.55
2023-05-19T10:01:51.054Z,18.57
2023-05-19T10:04:30.029Z,18.58
2023-05-19T10:07:16.298Z,18.61
2023-05-19T10:10:07.176Z,18.63
2023-05-19T10:13:09.068Z,18.66
2023-05-19T10:15:58.738Z,18.68
2023-05-19T10:18:44.058Z,18.70
2023-05-19T10:21:42.700Z,18.73
2023-05-19T10:24:18.393Z,18.75
2023-05-19T10:27:03.488Z,18.78
2023-05-19T10:29:45.992Z,18.80
2023-05-19T10:32:34.445Z,18.83
2023-05-19T10:35:48.430Z,18.85
2023-05-19T10:38:48.656Z,18.87
2023-05-19T10:41:36.060Z,18.90
2023-05-19T10:44:34.314Z,18.92
2023-05-19T10:47:08.449Z,18.94
2023-05-19T10:49:41.172Z,18.97
2023-05-19T10:52:27.020Z,18.98
2023-05-19T10:58:56.396Z,19.03
2023-05-19T11:01:49.871Z,19.06
2023-05-19T11:04:56.480Z,19.08
2023-05-19T11:07:29.951Z,19.11
2023-05-19T11:10:18.297Z,19.12
2023-05-19T11:13:06.904Z,19.15
2023-05-19T11:15:45.730Z,19.18
2023-05-19T11:18:19.542Z,19.20
2023-05-19T11:21:08.850Z,19.22
2023-05-19T11:26:55.421Z,19.27
2023-05-19T11:29:32.981Z,19.28
2023-05-19T11:32:07.608Z,19.31
2023-05-19T11:34:41.963Z,19.34
2023-05-19T11:37:20.963Z,19.37
2023-05-19T11:39:53.486Z,19.40
2023-05-19T11:42:38.120Z,19.43
2023-05-19T11:45:40.014Z,19.45
2023-05-19T11:48:13.350Z,19.48
2023-05-19T11:50:47.105Z,19.49
2023-05-19T11:53:21.204Z,19.52
2023-05-19T11:55:53.897Z,19.55
2023-05-19T11:58:29.408Z,19.55
2023-05-19T12:01:04.244Z,19.57
2023-05-19T12:03:46.557Z,19.60
2023-05-19T12:06:31.827Z,19.61
2023-05-19T12:09:22.385Z,19.63
2023-05-19T12:12:17.164Z,19.64
2023-05-19T12:14:53.522Z,19.67
2023-05-19T12:17:26.293Z,19.69
2023-05-19T12:19:59.503Z,19.72
2023-05-19T12:22:32.392Z,19.75
2023-05-19T12:25:08.496Z,19.76
2023-05-19T12:27:43.992Z,19.78
2023-05-19T12:30:29.410Z,19.80
2023-05-19T12:33:02.819Z,19.83
2023-05-19T12:35:54.027Z,19.86
2023-05-19T12:38:32.929Z,19.87
2023-05-19T12:43:58.942Z,19.90
2023-05-19T12:46:46.826Z,19.92
2023-05-19T12:49:19.711Z,19.95
2023-05-19T12:52:18.726Z,19.95
2023-05-19T12:55:05.776Z,19.96
2023-05-19T12:57:43.632Z,20.01
2023-05-19T13:00:22.697Z,20.03
2023-05-19T13:03:00.989Z,20.05
2023-05-19T13:05:38.395Z,20.06
2023-05-19T13:08:22.083Z,20.09
2023-05-19T13:10:55.134Z,20.12
2023-05-19T13:13:28.090Z,20.14
2023-05-19T13:16:02.037Z,20.15
2023-05-19T13:18:37.972Z,20.16
2023-05-19T13:21:10.520Z,20.20
2023-05-19T13:23:49.479Z,20.20
2023-05-19T13:26:21.991Z,20.22
2023-05-19T13:28:57.130Z,20.23
2023-05-19T13:31:47.970Z,20.25
2023-05-19T13:34:26.764Z,20.26
2023-05-19T13:37:11.941Z,20.29
2023-05-19T13:39:53.985Z,20.30
2023-05-19T13:42:29.521Z,20.33
2023-05-19T13:45:02.834Z,20.33
2023-05-19T13:47:35.975Z,20.35
2023-05-19T13:50:08.770Z,20.35
2023-05-19T13:52:41.779Z,20.36
2023-05-19T13:55:23.757Z,20.36
2023-05-19T13:58:13.650Z,20.36
2023-05-19T14:00:46.291Z,20.37
2023-05-19T14:03:27.058Z,20.38
2023-05-19T14:06:07.269Z,20.40
2023-05-19T14:08:39.746Z,20.42
2023-05-19T14:11:22.837Z,20.41
2023-05-19T14:13:56.078Z,20.41
2023-05-19T14:19:30.368Z,20.44
2023-05-19T14:22:19.625Z,20.45
2023-05-19T14:25:18.004Z,20.46
2023-05-19T14:27:56.772Z,20.47
2023-05-19T14:30:33.309Z,20.49
2023-05-19T14:33:13.112Z,20.50
2023-05-19T14:35:52.093Z,20.52
2023-05-19T14:38:25.171Z,20.51
2023-05-19T14:41:07.571Z,20.52
2023-05-19T14:43:42.309Z,20.53
2023-05-19T14:46:14.998Z,20.53
2023-05-19T14:48:47.672Z,20.53
2023-05-19T14:51:34.957Z,20.54
2023-05-19T14:54:07.710Z,20.55
2023-05-19T14:56:40.641Z,20.56
2023-05-19T14:59:13.580Z,20.56
2023-05-19T15:01:46.489Z,20.56
2023-05-19T15:04:19.327Z,20.55
2023-05-19T15:07:05.930Z,20.54
2023-05-19T15:09:42.103Z,20.53
2023-05-19T15:12:23.881Z,20.53
2023-05-19T15:15:11.811Z,20.52
2023-05-19T15:17:46.950Z,20.52
2023-05-19T15:20:27.468Z,20.52
2023-05-19T15:23:08.175Z,20.52
2023-05-19T15:26:33.048Z,20.51
2023-05-19T15:29:02.240Z,20.51
2023-05-19T15:31:50.849Z,20.51
2023-05-19T15:34:23.372Z,20.52
2023-05-19T15:36:56.512Z,20.52
2023-05-19T15:39:45.576Z,20.53
2023-05-19T15:42:33.205Z,20.54
2023-05-19T15:45:12.036Z,20.53
2023-05-19T15:47:44.638Z,20.53
2023-05-19T15:50:23.001Z,20.53
2023-05-19T15:53:06.744Z,20.54
2023-05-19T15:55:51.403Z,20.54
2023-05-19T15:58:36.057Z,20.54
2023-05-19T16:01:17.965Z,20.56
2023-05-19T16:03:56.937Z,20.55
2023-05-19T16:06:41.856Z,20.55
2023-05-19T16:09:26.393Z,20.54
2023-05-19T16:11:58.990Z,20.53
2023-05-19T16:17:35.751Z,20.52
2023-05-19T16:20:15.655Z,20.52
2023-05-19T16:23:00.238Z,20.53
2023-05-19T16:25:35.932Z,20.53
2023-05-19T16:28:11.454Z,20.54
2023-05-19T16:30:44.123Z,20.54
2023-05-19T16:33:30.006Z,20.54
2023-05-19T16:36:02.739Z,20.54
2023-05-19T16:39:48.379Z,20.55
2023-05-19T16:42:21.068Z,20.54
2023-05-19T16:45:02.780Z,20.54
2023-05-19T16:47:47.638Z,20.54
2023-05-19T16:50:29.029Z,20.55
2023-05-19T16:53:01.686Z,20.54
2023-05-19T16:55:34.269Z,20.54
2023-05-19T16:58:06.836Z,20.54
2023-05-19T17:00:39.488Z,20.54
2023-05-19T17:05:58.794Z,20.53
2023-05-19T17:08:31.371Z,20.53
2023-05-19T17:11:18.633Z,20.53
2023-05-19T17:14:07.701Z,20.51
2023-05-19T17:16:40.277Z,20.51
2023-05-19T17:19:13.670Z,20.51
2023-05-19T17:21:55.662Z,20.50
2023-05-19T17:24:29.331Z,20.50
2023-05-19T17:27:16.774Z,20.49
2023-05-19T17:29:49.509Z,20.49
2023-05-19T17:32:39.633Z,20.49
2023-05-19T17:35:12.301Z,20.48
2023-05-19T17:37:47.893Z,20.48
2023-05-19T17:40:28.938Z,20.48
2023-05-19T17:43:01.487Z,20.48
2023-05-19T17:45:34.446Z,20.48
2023-05-19T17:48:07.012Z,20.47
2023-05-19T17:50:51.511Z,20.47
2023-05-19T17:53:36.639Z,20.47
2023-05-19T17:56:22.041Z,20.45
2023-05-19T17:59:01.633Z,20.45
2023-05-19T18:01:54.794Z,20.45
2023-05-19T18:04:27.732Z,20.45
2023-05-19T18:07:01.332Z,20.45
2023-05-19T18:09:36.980Z,20.45
2023-05-19T18:12:09.677Z,20.44
2023-05-19T18:14:49.689Z,20.44
2023-05-19T18:17:22.255Z,20.44
2023-05-19T18:19:54.945Z,20.43
2023-05-19T18:22:27.848Z,20.42
2023-05-19T18:25:14.078Z,20.42
2023-05-19T18:27:58.619Z,20.41
2023-05-19T18:30:31.458Z,20.41
2023-05-19T18:33:06.255Z,20.40
2023-05-19T18:35:39.925Z,20.40
2023-05-19T18:38:18.608Z,20.41
2023-05-19T18:41:00.846Z,20.38
2023-05-19T18:43:34.416Z,20.38
2023-05-19T18:46:19.852Z,20.37
2023-05-19T18:48:58.562Z,20.36
2023-05-19T18:51:33.401Z,20.36
2023-05-19T18:54:06.896Z,20.35
2023-05-19T18:56:41.942Z,20.35
2023-05-19T18:59:20.763Z,20.35
2023-05-19T19:01:54.176Z,20.33
2023-05-19T19:04:26.778Z,20.34
2023-05-19T19:07:08.352Z,20.33
2023-05-19T19:09:43.608Z,20.32
2023-05-19T19:14:49.170Z,20.30
2023-05-19T19:17:31.133Z,20.30
2023-05-19T19:20:04.240Z,20.29
2023-05-19T19:22:43.255Z,20.29
2023-05-19T19:25:19.628Z,20.28
2023-05-19T19:28:31.528Z,20.28
2023-05-19T19:31:04.236Z,20.26
2023-05-19T19:34:17.890Z,20.26
2023-05-19T19:43:33.938Z,20.24
2023-05-19T19:46:10.738Z,20.23
2023-05-19T19:49:01.896Z,20.23
2023-05-19T19:52:51.374Z,20.23
2023-05-19T19:56:13.134Z,20.22
2023-05-19T19:58:59.072Z,20.21
2023-05-19T20:01:39.922Z,20.21
2023-05-19T20:04:12.804Z,20.21
2023-05-19T20:06:51.541Z,20.21
2023-05-19T20:09:49.649Z,20.22
2023-05-19T20:12:47.961Z,20.20
2023-05-19T20:15:20.842Z,20.21
2023-05-19T20:18:24.420Z,20.21
2023-05-19T20:21:03.156Z,20.20
2023-05-19T20:23:43.706Z,20.20
2023-05-19T20:26:16.778Z,20.20
2023-05-19T20:28:55.588Z,20.17
2023-05-19T20:31:35.866Z,20.17
2023-05-19T20:34:09.531Z,20.16
2023-05-19T20:36:44.140Z,20.16
2023-05-19T20:39:24.314Z,20.14
2023-05-19T20:41:58.196Z,20.14
2023-05-19T20:44:32.998Z,20.12
2023-05-19T20:47:08.184Z,20.11
2023-05-19T20:49:42.928Z,20.11
2023-05-19T20:52:16.585Z,20.10
2023-05-19T20:54:51.629Z,20.09
2023-05-19T20:57:43.957Z,20.09
2023-05-19T21:00:17.066Z,20.08
2023-05-19T21:02:53.995Z,20.07
2023-05-19T21:05:33.424Z,20.06
2023-05-19T21:08:06.292Z,20.05
2023-05-19T21:10:54.163Z,20.04
2023-05-19T21:16:26.723Z,20.01
2023-05-19T21:19:19.540Z,19.99
2023-05-19T21:22:01.559Z,19.99
2023-05-19T21:25:24.795Z,19.98
2023-05-19T21:28:13.860Z,19.96
2023-05-19T21:30:49.760Z,19.95
2023-05-19T21:33:23.180Z,19.94
2023-05-19T21:36:00.346Z,19.92
2023-05-19T21:38:32.950Z,19.92
2023-05-19T21:41:14.938Z,19.92
2023-05-19T21:43:51.341Z,19.90
2023-05-19T21:46:24.159Z,19.89
2023-05-19T21:51:27.961Z,19.87
2023-05-19T21:54:01.699Z,19.86
2023-05-19T21:56:34.280Z,19.85
2023-05-19T21:59:29.992Z,19.85
2023-05-19T22:02:00.429Z,19.80
2023-05-19T22:04:38.568Z,19.83
2023-05-19T22:07:11.333Z,19.83
2023-05-19T22:09:44.094Z,19.82
2023-05-19T22:12:17.099Z,19.81
2023-05-19T22:14:52.700Z,19.80
2023-05-19T22:17:25.382Z,19.79
2023-05-19T22:20:01.233Z,19.78
2023-05-19T22:22:38.000Z,19.76
2023-05-19T22:25:17.385Z,19.76
2023-05-19T22:28:02.997Z,19.75
2023-05-19T22:30:40.907Z,19.74
2023-05-19T22:33:13.960Z,19.73
2023-05-19T22:35:47.279Z,19.73
2023-05-19T22:38:25.720Z,19.71
2023-05-19T22:41:01.142Z,19.71
2023-05-19T22:43:45.919Z,19.70
2023-05-19T22:46:35.415Z,19.70
2023-05-19T22:49:15.473Z,19.68
2023-05-19T22:54:40.567Z,19.66
2023-05-19T22:57:25.315Z,19.66
2023-05-19T23:00:04.307Z,19.64
2023-05-19T23:02:37.015Z,19.64
2023-05-19T23:05:10.862Z,19.62
2023-05-19T23:10:36.105Z,19.61
2023-05-19T23:16:08.800Z,19.59
2023-05-19T23:18:56.154Z,19.59
2023-05-19T23:21:31.317Z,19.58
2023-05-19T23:24:04.217Z,19.57
2023-05-19T23:26:44.295Z,19.56
2023-05-19T23:29:17.001Z,19.54
2023-05-19T23:31:58.685Z,19.55
2023-05-19T23:34:40.384Z,19.54
2023-05-19T23:37:13.073Z,19.54
2023-05-19T23:39:48.763Z,19.52
2023-05-19T23:42:31.295Z,19.52
2023-05-19T23:45:04.410Z,19.51
2023-05-19T23:47:36.961Z,19.51
2023-05-19T23:50:09.924Z,19.51
2023-05-19T23:52:42.435Z,19.50
2023-05-19T23:55:15.156Z,19.49
2023-05-19T23:57:53.583Z,19.48
